sensor_id;sensor_type;location;lat;lon;timestamp;pressure;altitude;pressure_sealevel;temperature;humidity
31873;BME280;22407;42.820;23.374;2022-07-09T09:22:29;95692.18;;;20.96;74.64
31873;BME280;22407;42.820;23.374;2022-07-09T09:24:58;95690.42;;;20.99;74.85
31873;BME280;22407;42.820;23.374;2022-07-09T09:27:30;95699.39;;;20.72;73.95
31873;BME280;22407;42.820;23.374;2022-07-09T09:30:00;95698.65;;;20.56;73.77
31873;BME280;22407;42.820;23.374;2022-07-09T09:32:29;95697.90;;;20.02;74.66
31873;BME280;22407;42.820;23.374;2022-07-09T09:35:02;95691.97;;;19.70;77.38
31873;BME280;22407;42.820;23.374;2022-07-09T09:37:29;95699.48;;;19.49;79.93
31873;BME280;22407;42.820;23.374;2022-07-09T09:39:58;95696.34;;;19.35;80.05
31873;BME280;22407;42.820;23.374;2022-07-09T09:42:28;95689.91;;;19.25;80.05
31873;BME280;22407;42.820;23.374;2022-07-09T09:44:58;95696.63;;;18.99;79.43
31873;BME280;22407;42.820;23.374;2022-07-09T09:47:28;95700.11;;;18.89;80.37
31873;BME280;22407;42.820;23.374;2022-07-09T09:50:00;95698.11;;;18.87;81.03
31873;BME280;22407;42.820;23.374;2022-07-09T09:52:29;95693.94;;;18.99;81.79
31873;BME280;22407;42.820;23.374;2022-07-09T09:55:00;95693.60;;;19.24;80.69
31873;BME280;22407;42.820;23.374;2022-07-09T09:57:30;95693.81;;;19.22;79.45
31873;BME280;22407;42.820;23.374;2022-07-09T09:59:59;95690.70;;;19.40;80.58
31873;BME280;22407;42.820;23.374;2022-07-09T10:02:29;95689.83;;;19.65;77.42
31873;BME280;22407;42.820;23.374;2022-07-09T10:04:58;95688.02;;;19.88;77.40
31873;BME280;22407;42.820;23.374;2022-07-09T10:07:28;95685.20;;;19.49;76.53
31873;BME280;22407;42.820;23.374;2022-07-09T10:09:59;95680.58;;;19.53;74.97
31873;BME280;22407;42.820;23.374;2022-07-09T10:12:29;95680.48;;;19.25;76.00
31873;BME280;22407;42.820;23.374;2022-07-09T10:14:59;95678.86;;;19.35;78.43
31873;BME280;22407;42.820;23.374;2022-07-09T10:17:38;95682.56;;;19.44;77.15
31873;BME280;22407;42.820;23.374;2022-07-09T10:20:03;95677.66;;;19.59;77.86
31873;BME280;22407;42.820;23.374;2022-07-09T10:22:37;95682.21;;;19.69;75.82
31873;BME280;22407;42.820;23.374;2022-07-09T10:25:09;95680.09;;;19.54;76.10
31873;BME280;22407;42.820;23.374;2022-07-09T10:27:42;95681.27;;;19.40;75.60
31873;BME280;22407;42.820;23.374;2022-07-09T10:30:28;95683.41;;;19.19;75.77
31873;BME280;22407;42.820;23.374;2022-07-09T10:33:12;95684.70;;;19.23;76.37
31873;BME280;22407;42.820;23.374;2022-07-09T10:35:46;95695.16;;;19.22;75.75
31873;BME280;22407;42.820;23.374;2022-07-09T10:38:16;95696.92;;;19.15;74.98
31873;BME280;22407;42.820;23.374;2022-07-09T10:40:48;95695.64;;;19.22;74.23
31873;BME280;22407;42.820;23.374;2022-07-09T17:00:23;95608.45;;;20.13;64.99
31873;BME280;22407;42.820;23.374;2022-07-09T17:02:53;95610.77;;;20.05;64.72
31873;BME280;22407;42.820;23.374;2022-07-09T17:05:22;95612.59;;;19.98;66.05
31873;BME280;22407;42.820;23.374;2022-07-09T17:07:51;95611.41;;;20.18;65.92
31873;BME280;22407;42.820;23.374;2022-07-09T17:10:20;95610.41;;;20.26;64.61
31873;BME280;22407;42.820;23.374;2022-07-09T17:12:49;95612.23;;;20.19;64.53
31873;BME280;22407;42.820;23.374;2022-07-09T17:15:18;95611.74;;;20.09;65.65
31873;BME280;22407;42.820;23.374;2022-07-09T17:17:46;95605.05;;;20.15;65.25
31873;BME280;22407;42.820;23.374;2022-07-09T17:20:16;95596.94;;;20.26;64.76
31873;BME280;22407;42.820;23.374;2022-07-09T17:22:44;95612.05;;;20.20;65.03
31873;BME280;22407;42.820;23.374;2022-07-09T17:25:15;95610.39;;;20.09;64.89
31873;BME280;22407;42.820;23.374;2022-07-09T17:27:44;95607.02;;;20.00;66.64
31873;BME280;22407;42.820;23.374;2022-07-09T17:30:13;95612.89;;;19.99;67.57
31873;BME280;22407;42.820;23.374;2022-07-09T17:32:43;95613.23;;;20.00;66.88
31873;BME280;22407;42.820;23.374;2022-07-09T17:35:12;95615.31;;;19.88;66.78
31873;BME280;22407;42.820;23.374;2022-07-09T17:37:41;95611.77;;;19.76;67.12
31873;BME280;22407;42.820;23.374;2022-07-09T17:40:12;95610.61;;;19.96;66.06
31873;BME280;22407;42.820;23.374;2022-07-09T17:42:42;95619.30;;;19.81;67.89
31873;BME280;22407;42.820;23.374;2022-07-09T17:45:12;95621.63;;;19.69;68.68
31873;BME280;22407;42.820;23.374;2022-07-09T17:47:47;95622.34;;;19.67;68.17
31873;BME280;22407;42.820;23.374;2022-07-09T17:50:13;95631.13;;;19.43;68.72
31873;BME280;22407;42.820;23.374;2022-07-09T17:52:42;95629.36;;;19.14;71.07
31873;BME280;22407;42.820;23.374;2022-07-09T17:55:11;95623.40;;;19.19;70.56
31873;BME280;22407;42.820;23.374;2022-07-09T17:58:00;95631.48;;;18.93;72.76
31873;BME280;22407;42.820;23.374;2022-07-09T18:00:33;95630.94;;;18.83;72.63
31873;BME280;22407;42.820;23.374;2022-07-09T18:03:02;95628.94;;;18.66;73.98
31873;BME280;22407;42.820;23.374;2022-07-09T18:05:32;95635.14;;;18.52;74.75
31873;BME280;22407;42.820;23.374;2022-07-09T18:08:00;95638.48;;;18.54;74.93
31873;BME280;22407;42.820;23.374;2022-07-09T18:10:30;95642.58;;;18.16;78.24
31873;BME280;22407;42.820;23.374;2022-07-09T18:12:59;95641.45;;;18.10;78.41
31873;BME280;22407;42.820;23.374;2022-07-09T18:15:30;95639.87;;;18.01;77.74
31873;BME280;22407;42.820;23.374;2022-07-09T18:17:59;95649.82;;;17.92;77.93
31873;BME280;22407;42.820;23.374;2022-07-09T18:20:28;95644.58;;;18.18;78.13
31873;BME280;22407;42.820;23.374;2022-07-09T18:22:57;95651.81;;;17.94;79.96
31873;BME280;22407;42.820;23.374;2022-07-09T18:25:26;95650.02;;;17.68;80.44
31873;BME280;22407;42.820;23.374;2022-07-09T18:27:55;95659.72;;;17.46;80.70
31873;BME280;22407;42.820;23.374;2022-07-09T18:30:24;95656.02;;;17.51;80.21
31873;BME280;22407;42.820;23.374;2022-07-09T18:32:53;95658.84;;;17.53;80.16
31873;BME280;22407;42.820;23.374;2022-07-09T18:35:22;95662.26;;;17.43;80.59
31873;BME280;22407;42.820;23.374;2022-07-09T18:37:51;95663.25;;;17.42;80.41
31873;BME280;22407;42.820;23.374;2022-07-09T18:40:19;95664.05;;;17.28;81.75
31873;BME280;22407;42.820;23.374;2022-07-09T18:42:48;95674.88;;;17.07;81.99
31873;BME280;22407;42.820;23.374;2022-07-09T18:45:17;95666.73;;;16.92;81.93
31873;BME280;22407;42.820;23.374;2022-07-09T18:47:46;95680.14;;;16.92;82.24
31873;BME280;22407;42.820;23.374;2022-07-09T18:50:15;95684.19;;;16.84;82.49
31873;BME280;22407;42.820;23.374;2022-07-09T18:52:44;95689.25;;;16.58;84.02
31873;BME280;22407;42.820;23.374;2022-07-09T18:55:13;95691.11;;;16.54;84.86
31873;BME280;22407;42.820;23.374;2022-07-09T18:57:42;95693.66;;;16.43;85.79
31873;BME280;22407;42.820;23.374;2022-07-09T19:00:11;95696.31;;;16.51;84.89
31873;BME280;22407;42.820;23.374;2022-07-09T19:02:41;95701.39;;;16.26;86.45
31873;BME280;22407;42.820;23.374;2022-07-09T19:05:10;95699.02;;;16.39;86.51
31873;BME280;22407;42.820;23.374;2022-07-09T19:07:39;95692.69;;;16.32;84.86
31873;BME280;22407;42.820;23.374;2022-07-09T19:10:10;95701.05;;;16.16;86.10
31873;BME280;22407;42.820;23.374;2022-07-09T19:12:38;95698.21;;;16.22;86.78
31873;BME280;22407;42.820;23.374;2022-07-09T19:15:08;95697.71;;;16.06;86.87
31873;BME280;22407;42.820;23.374;2022-07-09T19:17:37;95699.91;;;16.15;87.42
31873;BME280;22407;42.820;23.374;2022-07-09T19:20:06;95704.08;;;16.26;86.32
31873;BME280;22407;42.820;23.374;2022-07-09T19:22:36;95705.06;;;16.12;86.04
31873;BME280;22407;42.820;23.374;2022-07-09T19:25:05;95715.63;;;15.93;87.00
31873;BME280;22407;42.820;23.374;2022-07-09T19:27:34;95709.11;;;15.84;88.57
31873;BME280;22407;42.820;23.374;2022-07-09T19:30:04;95709.59;;;15.87;87.16
31873;BME280;22407;42.820;23.374;2022-07-09T19:32:33;95706.24;;;15.77;88.16
31873;BME280;22407;42.820;23.374;2022-07-09T19:35:20;95707.71;;;15.55;88.63
31873;BME280;22407;42.820;23.374;2022-07-09T19:37:49;95706.03;;;15.58;89.58
31873;BME280;22407;42.820;23.374;2022-07-09T19:40:18;95704.33;;;15.36;90.25
31873;BME280;22407;42.820;23.374;2022-07-09T19:42:49;95706.02;;;15.37;90.84
31873;BME280;22407;42.820;23.374;2022-07-09T19:45:18;95709.99;;;15.25;92.11
31873;BME280;22407;42.820;23.374;2022-07-09T19:47:47;95705.33;;;15.31;90.91
31873;BME280;22407;42.820;23.374;2022-07-09T19:50:15;95702.33;;;15.38;89.72
31873;BME280;22407;42.820;23.374;2022-07-09T19:52:44;95696.64;;;15.33;89.45
31873;BME280;22407;42.820;23.374;2022-07-09T19:55:13;95705.30;;;15.19;89.75
31873;BME280;22407;42.820;23.374;2022-07-09T19:57:42;95706.36;;;14.88;92.11
31873;BME280;22407;42.820;23.374;2022-07-09T20:00:12;95700.77;;;14.69;93.87
31873;BME280;22407;42.820;23.374;2022-07-09T20:02:43;95695.55;;;14.63;95.00
31873;BME280;22407;42.820;23.374;2022-07-09T20:05:12;95702.78;;;14.49;96.82
31873;BME280;22407;42.820;23.374;2022-07-09T20:07:41;95703.24;;;14.62;96.49
31873;BME280;22407;42.820;23.374;2022-07-09T20:10:09;95700.58;;;14.70;94.56
31873;BME280;22407;42.820;23.374;2022-07-09T20:12:39;95687.77;;;14.78;94.63
31873;BME280;22407;42.820;23.374;2022-07-09T20:15:09;95697.51;;;14.87;93.08
31873;BME280;22407;42.820;23.374;2022-07-09T20:17:38;95701.16;;;14.86;92.43
31873;BME280;22407;42.820;23.374;2022-07-09T20:20:07;95702.41;;;14.66;93.22
31873;BME280;22407;42.820;23.374;2022-07-09T20:22:36;95695.70;;;14.62;93.68
31873;BME280;22407;42.820;23.374;2022-07-09T20:25:05;95709.41;;;14.63;93.84
31873;BME280;22407;42.820;23.374;2022-07-09T20:27:34;95707.95;;;14.46;94.04
31873;BME280;22407;42.820;23.374;2022-07-09T20:30:03;95708.53;;;14.32;94.41
